Time;durP1;ratioP1;P1;durP2;ratioP2;P2;SDS_P1;SDS_P2;PMS_P1;PMS_P2;Temp;Humidity;BMP_temperature;BMP_pressure;BME280_temperature;BME280_humidity;BME280_pressure;Samples;Min_cycle;Max_cycle;Signal;HPM_P1;HPM_P2
2021/04/24 00:00:25;;;;;;;28.83;3.07;;;6.70;99.90;;;;;;5079541;28;20920;-84
2021/04/24 00:02:53;;;;;;;40.83;5.67;;;6.70;99.90;;;;;;5078884;28;20522;-85
2021/04/24 00:05:23;;;;;;;23.67;3.20;;;6.60;99.90;;;;;;5087014;28;20467;-85
2021/04/24 00:07:52;;;;;;;25.20;3.30;;;6.70;99.90;;;;;;5079510;28;20545;-85
2021/04/24 00:10:20;;;;;;;21.80;3.43;;;6.60;99.90;;;;;;5097956;28;20544;-85
2021/04/24 00:12:46;;;;;;;30.23;4.70;;;6.60;99.90;;;;;;5098964;28;20478;-84
2021/04/24 00:15:14;;;;;;;55.03;13.27;;;6.60;99.90;;;;;;5097819;28;20480;-84
2021/04/24 00:17:42;;;;;;;26.13;3.20;;;6.50;99.90;;;;;;5098475;28;20472;-85
2021/04/24 00:20:12;;;;;;;20.63;2.70;;;6.50;99.90;;;;;;5090480;28;20576;-85
2021/04/24 00:22:38;;;;;;;17.03;2.70;;;6.50;99.90;;;;;;5098274;28;20446;-85
2021/04/24 00:25:05;;;;;;;20.20;2.93;;;6.50;99.90;;;;;;5083892;28;20853;-85
2021/04/24 00:27:31;;;;;;;21.07;3.60;;;6.40;99.90;;;;;;5083166;28;20460;-85
2021/04/24 00:29:58;;;;;;;19.03;3.37;;;6.40;99.90;;;;;;5097494;28;20510;-86
2021/04/24 00:32:24;;;;;;;23.90;3.10;;;6.40;99.90;;;;;;5098666;28;20458;-85
2021/04/24 00:34:51;;;;;;;25.50;5.00;;;6.30;99.90;;;;;;5087045;28;20493;-85
2021/04/24 00:37:18;;;;;;;19.50;2.90;;;6.30;99.90;;;;;;5081415;28;20442;-85
2021/04/24 00:39:44;;;;;;;15.60;2.70;;;6.30;99.90;;;;;;5099255;28;20860;-84
2021/04/24 00:42:11;;;;;;;20.97;3.23;;;6.30;99.90;;;;;;5095736;28;20433;-84
2021/04/24 00:44:44;;;;;;;18.50;2.97;;;6.20;99.90;;;;;;5077984;28;20473;-85
2021/04/24 00:47:11;;;;;;;14.60;2.20;;;6.20;99.90;;;;;;5079751;28;20490;-84
2021/04/24 00:49:37;;;;;;;38.13;3.90;;;6.20;99.90;;;;;;5098597;28;20447;-84
2021/04/24 00:52:05;;;;;;;18.47;2.40;;;6.10;99.90;;;;;;5096912;28;20506;-84
2021/04/24 00:54:31;;;;;;;21.50;3.60;;;6.10;99.90;;;;;;5098088;28;20445;-85
2021/04/24 00:56:57;;;;;;;15.70;2.80;;;6.10;99.90;;;;;;5096815;28;20429;-86
2021/04/24 00:59:24;;;;;;;18.40;2.80;;;6.00;99.90;;;;;;5077499;28;20486;-85
2021/04/24 01:01:50;;;;;;;14.33;2.30;;;6.00;99.90;;;;;;5077951;28;20890;-84
2021/04/24 01:04:17;;;;;;;25.47;3.50;;;6.00;99.90;;;;;;5097845;28;20511;-85
2021/04/24 01:06:43;;;;;;;25.33;3.30;;;6.00;99.90;;;;;;5098063;28;20976;-83
2021/04/24 01:09:10;;;;;;;31.90;3.30;;;5.90;99.90;;;;;;5089232;28;20449;-84
2021/04/24 01:11:37;;;;;;;24.43;2.93;;;5.90;99.90;;;;;;5104297;28;20523;-85
2021/04/24 01:14:03;;;;;;;33.87;2.90;;;5.80;99.90;;;;;;5096674;28;20449;-84
2021/04/24 01:16:30;;;;;;;38.57;5.10;;;5.80;99.90;;;;;;5087189;28;20457;-84
2021/04/24 01:18:56;;;;;;;26.73;2.97;;;5.70;99.90;;;;;;5097474;28;20562;-85
2021/04/24 01:21:24;;;;;;;30.30;2.60;;;5.70;99.90;;;;;;5096509;28;20457;-85
2021/04/24 01:23:51;;;;;;;39.07;3.77;;;5.70;99.90;;;;;;5095268;28;20451;-85
2021/04/24 01:26:17;;;;;;;24.73;2.87;;;5.60;99.90;;;;;;5093292;28;20483;-84
2021/04/24 01:28:44;;;;;;;45.00;4.07;;;5.60;99.90;;;;;;5101749;28;20454;-84
2021/04/24 01:31:11;;;;;;;42.60;4.87;;;5.60;99.90;;;;;;5106411;28;20420;-83
2021/04/24 01:33:37;;;;;;;27.67;3.10;;;5.60;99.90;;;;;;5093840;28;20447;-85
2021/04/24 01:36:04;;;;;;;43.83;4.93;;;5.60;99.90;;;;;;5096426;28;20447;-85
2021/04/24 01:38:32;;;;;;;45.07;4.43;;;5.50;99.90;;;;;;5093054;28;20489;-84
2021/04/24 01:41:00;;;;;;;42.20;4.57;;;5.50;99.90;;;;;;5077183;28;20978;-84
2021/04/24 01:43:26;;;;;;;29.53;3.07;;;5.50;99.90;;;;;;5079170;28;21048;-85
2021/04/24 01:45:52;;;;;;;28.63;3.50;;;5.50;99.90;;;;;;5096882;28;20439;-84
2021/04/24 01:48:19;;;;;;;45.83;5.83;;;5.50;99.90;;;;;;5095931;28;20454;-84
2021/04/24 01:50:47;;;;;;;42.33;4.10;;;5.40;99.90;;;;;;5090102;28;20502;-84
2021/04/24 01:53:17;;;;;;;38.13;4.60;;;5.40;99.90;;;;;;5076993;28;20524;-84
2021/04/24 01:55:43;;;;;;;43.43;4.60;;;5.40;99.90;;;;;;5091680;28;20553;-84
2021/04/24 01:58:15;;;;;;;32.50;3.17;;;5.40;99.90;;;;;;5083929;28;20422;-84
2021/04/24 02:00:43;;;;;;;25.53;3.50;;;5.30;99.90;;;;;;5097037;28;20446;-85
2021/04/24 02:03:12;;;;;;;26.47;2.90;;;5.30;99.90;;;;;;5089164;28;20456;-86
2021/04/24 02:05:39;;;;;;;37.37;4.10;;;5.40;99.90;;;;;;5096781;28;20556;-84
2021/04/24 02:08:08;;;;;;;38.93;4.00;;;5.30;99.90;;;;;;5094766;28;20448;-85
2021/04/24 02:10:34;;;;;;;41.07;3.77;;;5.40;99.90;;;;;;5096722;28;20457;-85
2021/04/24 02:13:04;;;;;;;37.30;4.30;;;5.30;99.90;;;;;;5090848;28;20450;-86
2021/04/24 02:15:31;;;;;;;41.73;3.40;;;5.30;99.90;;;;;;5076111;28;20522;-84
2021/04/24 02:17:57;;;;;;;38.13;3.80;;;5.20;99.90;;;;;;5079849;28;20458;-84
2021/04/24 02:20:24;;;;;;;36.90;3.43;;;5.10;99.90;;;;;;5088968;28;20471;-84
2021/04/24 02:22:50;;;;;;;33.67;3.10;;;5.10;99.90;;;;;;5078512;28;20453;-85
2021/04/24 02:25:19;;;;;;;28.47;3.37;;;5.10;99.90;;;;;;5077030;28;20474;-85
2021/04/24 02:27:46;;;;;;;28.90;2.70;;;5.00;99.90;;;;;;5076849;28;20525;-85
2021/04/24 02:30:16;;;;;;;34.30;3.80;;;4.90;99.90;;;;;;5096417;28;20451;-86
2021/04/24 02:32:43;;;;;;;38.40;4.40;;;4.90;99.90;;;;;;5095243;28;20461;-86
2021/04/24 02:35:12;;;;;;;69.80;48.63;;;4.90;99.90;;;;;;5096327;28;20454;-85
2021/04/24 02:37:38;;;;;;;126.53;116.10;;;4.90;99.90;;;;;;5086402;28;20472;-85
2021/04/24 02:40:08;;;;;;;325.50;307.70;;;4.80;99.90;;;;;;5096657;28;20465;-85
2021/04/24 02:42:34;;;;;;;527.13;498.30;;;4.80;99.90;;;;;;5091660;28;20471;-85
2021/04/24 02:45:05;;;;;;;487.53;458.73;;;4.70;99.90;;;;;;5076097;28;20496;-84
2021/04/24 02:47:32;;;;;;;574.30;539.63;;;4.60;99.90;;;;;;5079335;28;20452;-84
2021/04/24 02:49:59;;;;;;;619.73;579.60;;;4.60;99.90;;;;;;5096320;28;20438;-84
2021/04/24 02:52:26;;;;;;;512.90;477.40;;;4.60;99.90;;;;;;5094617;28;20452;-84
2021/04/24 02:54:53;;;;;;;1999.90;999.90;;;4.50;99.90;;;;;;5078795;28;20470;-84
2021/04/24 02:57:20;;;;;;;1999.90;999.90;;;4.40;99.90;;;;;;5085789;28;20458;-85
2021/04/24 02:59:46;;;;;;;1999.90;999.90;;;4.40;99.90;;;;;;5076198;28;20515;-85
2021/04/24 03:02:14;;;;;;;1999.90;999.90;;;4.50;99.90;;;;;;5076147;28;20428;-84
2021/04/24 03:04:40;;;;;;;1999.90;999.90;;;4.40;99.90;;;;;;5080448;28;20447;-85
2021/04/24 03:07:08;;;;;;;1999.90;999.90;;;4.40;99.90;;;;;;5080663;28;20451;-85
2021/04/24 03:09:34;;;;;;;1999.90;999.90;;;4.40;99.90;;;;;;5083427;28;20533;-84
2021/04/24 03:12:00;;;;;;;1999.90;999.90;;;4.30;99.90;;;;;;5079568;28;20440;-85
2021/04/24 03:17:12;;;;;;;1999.90;999.90;;;4.20;99.90;;;;;;5124691;28;20449;-85
2021/04/24 03:19:38;;;;;;;1999.90;999.90;;;4.20;99.90;;;;;;5121566;28;20520;-84
2021/04/24 03:22:16;;;;;;;1999.90;999.90;;;4.20;99.90;;;;;;5120794;28;20420;-81
2021/04/24 03:24:43;;;;;;;1999.90;999.90;;;4.20;99.90;;;;;;5121840;27;20433;-85
2021/04/24 03:29:59;;;;;;;1999.90;999.90;;;4.20;99.90;;;;;;5109002;28;20433;-82
2021/04/24 03:32:38;;;;;;;1999.90;999.90;;;4.20;99.90;;;;;;5134906;27;20485;-84
2021/04/24 03:35:06;;;;;;;1999.90;999.90;;;4.20;99.90;;;;;;5124710;28;20531;-85
2021/04/24 03:37:51;;;;;;;1999.90;999.90;;;4.20;99.90;;;;;;5124063;28;20424;-81
2021/04/24 03:40:18;;;;;;;1999.90;999.90;;;4.20;99.90;;;;;;5127398;27;20454;-83
2021/04/24 03:42:47;;;;;;;1999.90;999.90;;;4.20;99.90;;;;;;5124077;28;20514;-82
2021/04/24 03:45:30;;;;;;;1999.90;999.90;;;4.20;99.90;;;;;;5125119;28;20517;-80
2021/04/24 03:51:23;;;;;;;1999.90;999.90;;;4.10;99.90;;;;;;5098584;28;20436;-82
2021/04/24 03:53:50;;;;;;;1999.90;999.90;;;4.10;99.90;;;;;;5122801;28;20445;-85
2021/04/24 03:56:16;;;;;;;1999.90;999.90;;;4.10;99.90;;;;;;5122911;28;20479;-84
2021/04/24 03:58:43;;;;;;;1999.90;999.90;;;4.10;99.90;;;;;;5122299;28;20491;-85
2021/04/24 04:01:09;;;;;;;1999.90;999.90;;;4.10;99.90;;;;;;5123580;28;20422;-83
2021/04/24 04:03:35;;;;;;;1999.90;999.90;;;4.20;99.90;;;;;;5127983;28;20538;-81
2021/04/24 04:06:02;;;;;;;1999.90;999.90;;;4.20;99.90;;;;;;5129191;28;20569;-80
2021/04/24 04:08:28;;;;;;;1164.95;999.90;;;4.20;99.90;;;;;;5129616;28;20866;-83
2021/04/24 04:10:55;;;;;;;1999.90;999.90;;;4.20;99.90;;;;;;5119126;28;20230;-84
2021/04/24 04:13:21;;;;;;;1999.90;999.90;;;4.30;99.90;;;;;;5118121;28;20506;-83
2021/04/24 04:15:48;;;;;;;1999.90;999.90;;;4.30;99.90;;;;;;5129012;27;20574;-81
2021/04/24 04:18:16;;;;;;;975.97;624.07;;;4.20;99.90;;;;;;5141879;27;20434;-83
2021/04/24 04:20:44;;;;;;;397.37;373.83;;;4.20;99.90;;;;;;5142189;27;20476;-80
2021/04/24 04:23:11;;;;;;;401.03;376.37;;;4.20;99.90;;;;;;5142380;27;20491;-80
2021/04/24 04:25:39;;;;;;;177.40;162.10;;;4.20;99.90;;;;;;5142188;27;20971;-80
2021/04/24 04:28:06;;;;;;;198.23;182.57;;;4.20;99.90;;;;;;5141050;27;20445;-83
2021/04/24 04:30:33;;;;;;;262.23;244.17;;;4.20;99.90;;;;;;5140964;27;21019;-82
2021/04/24 04:33:00;;;;;;;208.57;192.17;;;4.20;99.90;;;;;;5140601;27;20535;-80
2021/04/24 04:35:27;;;;;;;109.50;86.93;;;4.20;99.90;;;;;;5140422;27;20454;-83
2021/04/24 04:37:54;;;;;;;108.07;83.23;;;4.20;99.90;;;;;;5141407;27;20450;-84
2021/04/24 04:40:21;;;;;;;116.00;101.40;;;4.20;99.90;;;;;;5140355;27;20598;-82
2021/04/24 04:42:48;;;;;;;124.07;111.10;;;4.10;99.90;;;;;;5139611;27;20460;-83
2021/04/24 04:49:06;;;;;;;115.37;98.43;;;4.30;99.90;;;;;;5120308;27;20426;-80
2021/04/24 04:51:33;;;;;;;112.13;91.63;;;4.30;99.90;;;;;;5133111;27;20418;-83
2021/04/24 04:53:59;;;;;;;140.87;127.27;;;4.30;99.90;;;;;;5137987;27;20497;-81
2021/04/24 04:56:29;;;;;;;123.77;110.40;;;4.30;99.90;;;;;;5130265;27;20616;-80
2021/04/24 04:58:55;;;;;;;141.23;127.97;;;4.40;99.90;;;;;;5131064;27;20991;-80
2021/04/24 05:01:25;;;;;;;143.33;129.40;;;4.40;99.90;;;;;;5130922;27;20471;-80
2021/04/24 05:03:51;;;;;;;157.87;143.60;;;4.40;99.90;;;;;;5129637;27;20525;-80
2021/04/24 05:06:17;;;;;;;237.17;220.33;;;4.40;99.90;;;;;;5131333;27;20492;-79
2021/04/24 05:08:47;;;;;;;152.33;138.73;;;4.60;99.90;;;;;;5132923;27;20439;-80
2021/04/24 05:11:17;;;;;;;136.97;123.20;;;4.60;99.90;;;;;;5127854;27;20826;-81
2021/04/24 05:13:45;;;;;;;152.47;138.23;;;4.70;99.90;;;;;;5129733;27;20426;-81
2021/04/24 05:16:13;;;;;;;135.67;122.53;;;4.80;99.90;;;;;;5128412;27;20487;-81
2021/04/24 05:18:41;;;;;;;126.87;113.73;;;4.80;99.90;;;;;;5131146;27;20542;-80
2021/04/24 05:21:07;;;;;;;130.27;116.50;;;4.90;99.90;;;;;;5125039;27;20420;-80
2021/04/24 05:23:33;;;;;;;153.57;140.30;;;5.00;99.90;;;;;;5129171;27;20478;-80
2021/04/24 05:26:01;;;;;;;137.83;125.07;;;5.10;99.90;;;;;;5141056;22;20502;-80
2021/04/24 05:28:29;;;;;;;208.50;192.60;;;5.20;99.90;;;;;;5139101;27;20530;-80
2021/04/24 05:30:55;;;;;;;231.17;214.57;;;5.20;99.90;;;;;;5137629;27;20550;-83
2021/04/24 05:33:22;;;;;;;167.17;153.37;;;5.30;99.90;;;;;;5147255;27;20476;-80
2021/04/24 05:36:06;;;;;;;;;;;;;;;;;;;;;
2021/04/24 05:39:06;;;;;;;196.90;181.33;;;5.50;99.90;;;;;;5128161;27;20439;-80
2021/04/24 05:41:34;;;;;;;102.50;74.83;;;5.60;99.90;;;;;;5132845;27;20459;-81
2021/04/24 05:44:00;;;;;;;108.67;96.87;;;5.60;99.90;;;;;;5135432;27;20510;-83
2021/04/24 05:46:31;;;;;;;114.03;101.83;;;5.70;99.90;;;;;;5131086;27;20469;-80
2021/04/24 05:49:05;;;;;;;144.47;131.03;;;5.80;99.90;;;;;;5132524;27;20507;-83
2021/04/24 05:51:47;;;;;;;139.23;125.67;;;5.90;99.90;;;;;;5134674;27;20538;-84
2021/04/24 05:57:39;;;;;;;162.33;148.83;;;6.10;99.90;;;;;;5029727;27;20440;-84
2021/04/24 06:00:11;;;;;;;194.67;179.67;;;6.40;99.90;;;;;;5134722;27;20555;-86
2021/04/24 06:02:38;;;;;;;146.63;133.33;;;6.50;99.90;;;;;;5134351;27;20441;-86
2021/04/24 06:05:09;;;;;;;206.90;191.70;;;6.70;99.90;;;;;;5132129;27;20468;-84
2021/04/24 06:07:38;;;;;;;213.53;197.93;;;6.80;99.90;;;;;;5110862;27;20452;-85
2021/04/24 06:10:07;;;;;;;195.13;180.13;;;6.90;99.90;;;;;;5135461;27;20447;-85
2021/04/24 06:12:35;;;;;;;253.33;236.13;;;6.90;99.90;;;;;;5135244;27;20440;-84
2021/04/24 06:15:25;;;;;;;241.60;224.07;;;7.00;99.90;;;;;;5142011;27;20546;-85
2021/04/24 06:18:04;;;;;;;;;;;;;;;;;;;;;
2021/04/24 06:20:31;;;;;;;201.97;186.27;;;7.20;99.90;;;;;;5139755;27;20484;-86
2021/04/24 06:22:57;;;;;;;269.93;251.90;;;7.30;99.90;;;;;;5145961;27;20536;-85
2021/04/24 06:25:27;;;;;;;124.37;111.20;;;7.40;99.90;;;;;;5131278;27;20507;-83
2021/04/24 06:28:09;;;;;;;201.63;186.17;;;7.50;99.90;;;;;;5142194;27;20477;-82
2021/04/24 06:30:42;;;;;;;280.43;262.17;;;7.50;99.90;;;;;;5142019;27;20974;-83
2021/04/24 06:33:08;;;;;;;306.57;287.13;;;7.50;99.90;;;;;;5136058;27;20444;-84
2021/04/24 06:36:09;;;;;;;428.00;400.17;;;7.30;99.90;;;;;;5134105;27;20845;-84
2021/04/24 06:39:06;;;;;;;354.47;332.33;;;7.60;99.90;;;;;;5134826;27;20542;-86
2021/04/24 06:41:40;;;;;;;902.05;841.25;;;7.70;99.90;;;;;;5131000;27;20465;-83
2021/04/24 06:44:13;;;;;;;747.87;701.57;;;7.80;99.90;;;;;;5143017;27;20205;-83
2021/04/24 06:46:44;;;;;;;557.00;524.13;;;8.00;99.90;;;;;;5130120;28;20921;-83
2021/04/24 06:49:11;;;;;;;457.37;429.20;;;7.90;99.90;;;;;;5123753;28;20476;-84
2021/04/24 06:51:37;;;;;;;471.83;443.00;;;7.80;99.90;;;;;;5139008;27;20436;-84
2021/04/24 06:54:04;;;;;;;387.07;364.03;;;8.10;99.90;;;;;;5145500;27;20520;-84
2021/04/24 06:56:33;;;;;;;485.20;455.33;;;8.20;99.90;;;;;;5131627;27;20522;-83
2021/04/24 06:59:06;;;;;;;878.93;807.07;;;8.30;99.90;;;;;;5122796;28;20445;-82
2021/04/24 07:01:35;;;;;;;454.27;427.43;;;8.30;99.90;;;;;;5142827;28;20448;-84
2021/04/24 07:04:03;;;;;;;708.57;665.00;;;8.30;99.90;;;;;;5147428;28;20464;-83
2021/04/24 07:06:29;;;;;;;617.90;583.00;;;8.30;99.90;;;;;;5132908;28;21019;-84
2021/04/24 07:09:13;;;;;;;713.60;667.97;;;8.40;99.90;;;;;;5119373;28;20437;-82
2021/04/24 07:11:39;;;;;;;643.50;606.17;;;8.50;99.90;;;;;;5141886;28;20466;-83
2021/04/24 07:14:05;;;;;;;533.77;494.10;;;8.60;99.90;;;;;;5128024;28;20452;-83
2021/04/24 07:16:35;;;;;;;1999.90;999.90;;;9.00;99.90;;;;;;5126667;28;20494;-84
2021/04/24 07:19:04;;;;;;;1999.90;999.90;;;9.10;99.90;;;;;;5145369;28;20444;-84
2021/04/24 07:21:30;;;;;;;1999.90;999.90;;;8.90;99.90;;;;;;5140637;28;20878;-82
2021/04/24 07:23:58;;;;;;;983.90;625.53;;;9.10;99.90;;;;;;5144086;28;20527;-83
2021/04/24 07:26:52;;;;;;;1999.90;999.90;;;9.00;99.90;;;;;;5142386;28;20480;-82
2021/04/24 07:30:06;;;;;;;1999.90;999.90;;;9.20;99.90;;;;;;5134905;28;20445;-83
2021/04/24 07:32:32;;;;;;;1999.90;999.90;;;9.50;99.90;;;;;;5116539;28;20452;-85
2021/04/24 07:35:00;;;;;;;1999.90;999.90;;;9.60;99.90;;;;;;5128720;28;20542;-85
2021/04/24 07:37:27;;;;;;;1999.90;999.90;;;10.00;99.90;;;;;;5131009;28;20449;-84
2021/04/24 07:39:53;;;;;;;1999.90;999.90;;;10.50;99.90;;;;;;5128913;28;20481;-84
2021/04/24 07:42:21;;;;;;;441.27;409.10;;;11.10;99.90;;;;;;5141882;28;20503;-84
2021/04/24 07:44:47;;;;;;;12.27;4.67;;;11.80;99.90;;;;;;5140991;28;20449;-82
2021/04/24 07:47:16;;;;;;;11.97;5.57;;;12.60;99.90;;;;;;5133376;28;20964;-83
2021/04/24 07:49:42;;;;;;;11.80;5.43;;;12.90;99.90;;;;;;5139378;27;20468;-85
2021/04/24 07:52:11;;;;;;;13.17;5.03;;;13.50;99.90;;;;;;5139128;27;20457;-83
2021/04/24 07:54:48;;;;;;;11.97;5.00;;;13.90;99.90;;;;;;5146492;27;20433;-83
2021/04/24 07:57:15;;;;;;;10.33;4.63;;;14.60;99.90;;;;;;5143942;27;20801;-85
2021/04/24 07:59:45;;;;;;;14.33;7.73;;;15.70;99.90;;;;;;5143443;27;20553;-85
2021/04/24 08:02:13;;;;;;;17.10;8.83;;;16.30;99.90;;;;;;5131293;27;20491;-84
2021/04/24 08:04:39;;;;;;;19.57;10.27;;;17.40;99.90;;;;;;5146865;27;20455;-85
2021/04/24 08:07:12;;;;;;;21.03;9.60;;;17.80;99.90;;;;;;5146258;27;20452;-84
2021/04/24 08:09:40;;;;;;;15.03;8.27;;;17.30;99.90;;;;;;5132056;27;20469;-81
2021/04/24 08:12:14;;;;;;;13.43;7.50;;;18.00;99.90;;;;;;5143130;27;20452;-82
2021/04/24 08:14:41;;;;;;;15.40;8.30;;;18.60;99.90;;;;;;5144077;27;20409;-83
2021/04/24 08:17:16;;;;;;;13.67;7.20;;;18.10;99.80;;;;;;5137740;27;20510;-81
2021/04/24 08:19:43;;;;;;;12.10;6.30;;;18.70;98.80;;;;;;5139910;27;20474;-83
2021/04/24 08:22:10;;;;;;;12.50;6.60;;;19.10;99.90;;;;;;5135955;27;20848;-84
2021/04/24 08:24:36;;;;;;;10.80;4.70;;;20.20;97.50;;;;;;5133634;27;20444;-83
2021/04/24 08:27:03;;;;;;;10.50;5.37;;;20.60;91.80;;;;;;5141669;27;20459;-83
2021/04/24 08:29:29;;;;;;;10.27;5.27;;;20.70;90.90;;;;;;5129342;27;20449;-83
2021/04/24 08:31:56;;;;;;;9.70;4.90;;;20.80;91.80;;;;;;5121875;28;20819;-83
2021/04/24 08:34:24;;;;;;;11.50;5.07;;;21.00;90.90;;;;;;5125598;27;20449;-84
2021/04/24 08:36:51;;;;;;;8.87;4.43;;;21.60;83.80;;;;;;5133211;27;20555;-83
2021/04/24 08:39:19;;;;;;;9.87;4.77;;;22.10;84.00;;;;;;5128751;27;20559;-81
2021/04/24 08:41:45;;;;;;;9.40;4.30;;;22.30;81.40;;;;;;5129405;27;20446;-82
2021/04/24 08:44:14;;;;;;;8.40;3.47;;;22.10;76.60;;;;;;5131461;27;20459;-80
2021/04/24 08:46:40;;;;;;;8.63;3.50;;;22.40;74.50;;;;;;5138887;27;20464;-82
2021/04/24 08:49:07;;;;;;;6.03;3.10;;;23.20;73.90;;;;;;5132616;27;20436;-83
2021/04/24 08:51:33;;;;;;;7.90;3.40;;;22.80;69.20;;;;;;5141160;27;20481;-80
2021/04/24 08:54:00;;;;;;;7.33;3.83;;;24.00;68.30;;;;;;5145970;27;20532;-82
2021/04/24 08:56:28;;;;;;;10.13;3.43;;;24.00;67.30;;;;;;5131301;27;20467;-83
2021/04/24 08:58:57;;;;;;;6.90;2.87;;;23.70;65.90;;;;;;5128724;27;20446;-82
2021/04/24 09:01:24;;;;;;;8.47;3.20;;;23.10;62.10;;;;;;5129714;27;20831;-86
2021/04/24 09:03:50;;;;;;;8.30;4.13;;;23.40;63.50;;;;;;5128970;27;20520;-84
2021/04/24 09:06:21;;;;;;;6.57;3.30;;;22.90;62.40;;;;;;5133564;27;20472;-83
2021/04/24 09:08:53;;;;;;;8.03;3.90;;;23.60;60.80;;;;;;5143471;27;20452;-83
2021/04/24 09:11:19;;;;;;;7.70;3.87;;;23.10;61.70;;;;;;5135142;27;20459;-81
2021/04/24 09:14:01;;;;;;;9.80;3.33;;;22.50;65.90;;;;;;5127037;27;20956;-81
2021/04/24 09:16:28;;;;;;;6.90;2.80;;;23.70;63.70;;;;;;5134628;22;20568;-84
2021/04/24 09:18:55;;;;;;;8.60;4.20;;;23.70;63.70;;;;;;5118970;28;20589;-85
2021/04/24 09:21:23;;;;;;;7.37;3.80;;;23.80;62.90;;;;;;5119832;28;20489;-85
2021/04/24 09:23:50;;;;;;;10.00;3.77;;;24.40;61.00;;;;;;5123980;28;20520;-84
2021/04/24 09:26:19;;;;;;;7.13;3.30;;;24.40;57.30;;;;;;5113700;28;20493;-84
2021/04/24 09:28:50;;;;;;;7.90;3.90;;;25.00;57.30;;;;;;5106177;28;20502;-83
2021/04/24 09:31:21;;;;;;;6.20;2.90;;;25.60;56.10;;;;;;5101564;28;20533;-84
2021/04/24 09:33:52;;;;;;;6.67;3.03;;;24.40;54.20;;;;;;5088731;28;20486;-83
2021/04/24 09:36:18;;;;;;;7.07;3.47;;;24.30;55.00;;;;;;5103738;28;20810;-84
2021/04/24 09:38:46;;;;;;;6.10;3.07;;;24.90;55.30;;;;;;5104061;28;20448;-84
2021/04/24 09:41:15;;;;;;;6.40;2.93;;;24.60;55.00;;;;;;5104937;28;20526;-84
2021/04/24 09:44:02;;;;;;;6.13;2.87;;;24.90;55.20;;;;;;5106072;28;20447;-84
2021/04/24 09:46:32;;;;;;;6.10;2.07;;;26.40;55.40;;;;;;5101604;28;20466;-85
2021/04/24 09:49:13;;;;;;;8.43;3.10;;;26.70;53.00;;;;;;5108929;28;20501;-84
2021/04/24 09:51:42;;;;;;;6.00;2.83;;;25.70;54.00;;;;;;5113396;28;20446;-84
2021/04/24 09:54:09;;;;;;;6.20;2.87;;;25.80;51.60;;;;;;5106103;28;20481;-84
2021/04/24 09:56:36;;;;;;;6.27;2.60;;;24.90;52.50;;;;;;5096771;28;20561;-83
2021/04/24 09:59:05;;;;;;;6.87;2.97;;;25.30;53.60;;;;;;5102193;28;20462;-84
2021/04/24 10:01:33;;;;;;;7.80;3.10;;;24.90;51.50;;;;;;5101711;28;20959;-83
2021/04/24 10:04:01;;;;;;;5.80;2.13;;;23.40;51.20;;;;;;5094294;28;20848;-85
2021/04/24 10:06:30;;;;;;;6.27;2.40;;;25.00;54.50;;;;;;5099798;28;20480;-83
2021/04/24 10:09:22;;;;;;;9.90;2.77;;;25.20;53.90;;;;;;5098000;28;20461;-84
2021/04/24 10:12:09;;;;;;;9.23;2.93;;;23.80;50.10;;;;;;5097263;28;20442;-84
2021/04/24 10:14:38;;;;;;;6.33;3.00;;;23.80;53.40;;;;;;5097377;28;20457;-83
2021/04/24 10:17:06;;;;;;;6.20;2.80;;;24.30;51.50;;;;;;5102949;28;20560;-83
2021/04/24 10:19:37;;;;;;;6.47;2.60;;;24.50;52.10;;;;;;5092466;28;20534;-86
2021/04/24 10:22:05;;;;;;;6.63;2.80;;;25.40;54.90;;;;;;5104026;28;20423;-86
2021/04/24 10:24:31;;;;;;;6.80;2.87;;;26.50;52.70;;;;;;5103998;28;20813;-85
2021/04/24 10:26:58;;;;;;;9.40;4.07;;;27.00;50.50;;;;;;5106274;28;20537;-86
2021/04/24 10:29:26;;;;;;;7.37;3.27;;;27.00;51.00;;;;;;5107078;28;21017;-85
2021/04/24 10:31:54;;;;;;;10.33;4.17;;;26.00;48.30;;;;;;5102035;28;20459;-85
2021/04/24 10:34:21;;;;;;;20.37;18.43;;;24.50;48.60;;;;;;5096255;28;20507;-85
2021/04/24 10:36:51;;;;;;;12.47;11.17;;;24.60;50.00;;;;;;5108433;28;20815;-84
2021/04/24 10:39:23;;;;;;;16.37;14.77;;;25.20;49.80;;;;;;5087649;28;20455;-84
2021/04/24 10:42:01;;;;;;;12.10;10.83;;;26.20;51.70;;;;;;5090221;28;21018;-87
2021/04/24 10:44:43;;;;;;;9.20;6.47;;;26.60;50.60;;;;;;5103295;28;20449;-87
2021/04/24 10:47:11;;;;;;;11.50;10.33;;;27.20;51.90;;;;;;5106971;28;20549;-85
2021/04/24 10:49:53;;;;;;;15.50;14.10;;;26.40;48.00;;;;;;5106761;28;20526;-84
2021/04/24 10:52:20;;;;;;;7.93;3.67;;;26.50;49.10;;;;;;5085977;28;20448;-86
2021/04/24 10:55:22;;;;;;;7.40;4.03;;;25.20;50.40;;;;;;5106642;28;20549;-87
2021/04/24 10:57:50;;;;;;;8.33;5.13;;;26.30;49.80;;;;;;5107795;28;20509;-86
2021/04/24 11:00:18;;;;;;;6.83;3.93;;;26.40;48.30;;;;;;5103288;28;20509;-87
2021/04/24 11:02:47;;;;;;;8.20;3.63;;;25.50;49.10;;;;;;5091412;28;20446;-85
2021/04/24 11:05:23;;;;;;;7.60;4.07;;;25.20;49.30;;;;;;5096734;28;20860;-85
2021/04/24 11:08:05;;;;;;;8.47;3.60;;;26.50;50.30;;;;;;5086564;28;20863;-86
2021/04/24 11:10:32;;;;;;;7.03;4.00;;;26.50;49.30;;;;;;5091388;28;20931;-86
2021/04/24 11:13:00;;;;;;;12.70;6.73;;;25.10;47.80;;;;;;5101989;28;20438;-85
2021/04/24 11:15:27;;;;;;;34.00;30.17;;;25.20;49.30;;;;;;5104639;28;20550;-85
2021/04/24 11:17:57;;;;;;;169.63;121.37;;;25.00;47.70;;;;;;5105034;28;20454;-86
2021/04/24 11:20:48;;;;;;;613.93;541.00;;;25.70;48.90;;;;;;5104403;28;20944;-85
2021/04/24 11:23:44;;;;;;;221.43;197.97;;;27.10;49.80;;;;;;5103656;28;20458;-87
2021/04/24 11:26:13;;;;;;;121.97;106.40;;;27.90;48.80;;;;;;5100914;28;20465;-85
2021/04/24 11:29:15;;;;;;;85.07;65.43;;;28.50;47.90;;;;;;5115560;28;20516;-86
2021/04/24 11:31:56;;;;;;;259.70;233.07;;;28.20;48.50;;;;;;5112858;28;20501;-85
2021/04/24 11:34:29;;;;;;;375.90;338.07;;;29.50;47.40;;;;;;5103443;28;20486;-85
2021/04/24 11:37:23;;;;;;;214.70;189.07;;;28.30;44.70;;;;;;5103980;28;20481;-86
2021/04/24 11:40:18;;;;;;;49.93;44.83;;;27.70;44.70;;;;;;5109051;28;20549;-87
2021/04/24 11:43:09;;;;;;;20.17;16.60;;;27.60;46.30;;;;;;5110398;28;20453;-88
2021/04/24 11:45:51;;;;;;;7.73;3.57;;;29.50;46.30;;;;;;5085818;28;20529;-85
2021/04/24 11:48:38;;;;;;;12.40;5.00;;;30.30;43.80;;;;;;5098322;28;20872;-86
2021/04/24 11:51:06;;;;;;;8.03;3.20;;;31.40;44.70;;;;;;5113913;28;20457;-85
2021/04/24 11:53:47;;;;;;;7.87;3.80;;;31.00;43.30;;;;;;5110883;28;20514;-85
2021/04/24 11:56:14;;;;;;;7.23;3.77;;;29.40;42.20;;;;;;5096223;28;20462;-85
2021/04/24 11:58:43;;;;;;;7.77;4.30;;;29.10;42.80;;;;;;5093975;28;20506;-84
2021/04/24 12:01:19;;;;;;;7.10;3.97;;;30.00;45.70;;;;;;5102998;28;20485;-84
2021/04/24 12:03:46;;;;;;;6.00;2.90;;;29.30;43.60;;;;;;5091737;28;20667;-85
2021/04/24 12:06:13;;;;;;;6.67;3.27;;;30.40;44.40;;;;;;5087546;28;20455;-84
2021/04/24 12:08:40;;;;;;;7.50;3.30;;;29.00;41.90;;;;;;5102341;28;20446;-86
2021/04/24 12:11:11;;;;;;;7.17;4.00;;;27.80;41.70;;;;;;5100040;28;20478;-85
2021/04/24 12:13:37;;;;;;;7.43;2.97;;;27.40;46.20;;;;;;5101582;28;20528;-83
2021/04/24 12:16:04;;;;;;;7.30;3.47;;;26.10;44.10;;;;;;5101901;28;20490;-84
2021/04/24 12:18:31;;;;;;;7.13;3.20;;;24.50;44.20;;;;;;5101193;28;20548;-83
2021/04/24 12:20:58;;;;;;;7.40;3.50;;;23.70;44.80;;;;;;5103374;28;20535;-83
2021/04/24 12:23:25;;;;;;;9.80;3.93;;;22.90;45.10;;;;;;5101703;28;20446;-83
2021/04/24 12:25:52;;;;;;;9.13;3.87;;;22.20;44.80;;;;;;5103678;28;20847;-83
2021/04/24 12:28:20;;;;;;;9.90;5.23;;;21.80;47.40;;;;;;5104548;28;20466;-86
2021/04/24 12:30:47;;;;;;;8.17;3.90;;;22.90;49.80;;;;;;5107058;28;20450;-85
2021/04/24 12:33:15;;;;;;;6.10;3.40;;;23.80;49.70;;;;;;5082963;28;20442;-85
2021/04/24 12:35:43;;;;;;;8.77;3.47;;;24.50;48.50;;;;;;5119534;28;20541;-84
2021/04/24 12:38:12;;;;;;;6.93;4.20;;;24.90;47.20;;;;;;5120770;28;20435;-83
2021/04/24 12:40:40;;;;;;;5.87;2.80;;;24.50;46.80;;;;;;5120692;28;20470;-86
2021/04/24 12:43:09;;;;;;;9.30;4.30;;;25.60;47.90;;;;;;5102205;28;20502;-86
2021/04/24 12:45:38;;;;;;;6.63;3.80;;;27.20;47.00;;;;;;5119667;28;20486;-86
2021/04/24 12:48:11;;;;;;;7.67;4.20;;;29.00;44.20;;;;;;5114324;28;20459;-86
2021/04/24 12:50:41;;;;;;;8.33;4.00;;;28.90;44.90;;;;;;5099786;28;20458;-87
2021/04/24 12:53:12;;;;;;;8.47;3.63;;;28.20;43.90;;;;;;5106694;28;20515;-88
2021/04/24 12:55:42;;;;;;;7.13;4.40;;;28.60;44.10;;;;;;5119419;28;20466;-88
2021/04/24 12:58:10;;;;;;;7.90;4.30;;;27.80;44.30;;;;;;5118965;28;20446;-88
2021/04/24 13:00:40;;;;;;;8.03;4.20;;;26.30;43.80;;;;;;5117826;28;20489;-87
2021/04/24 13:03:23;;;;;;;7.90;4.03;;;26.10;45.70;;;;;;5107464;28;20443;-86